Time;durP1;ratioP1;P1;durP2;ratioP2;P2;SDS_P1;SDS_P2;PMS_P1;PMS_P2;Temp;Humidity;BMP_temperature;BMP_pressure;BME280_temperature;BME280_humidity;BME280_pressure;Samples;Min_cycle;Max_cycle;Signal;HPM_P1;HPM_P2
2023/03/18 00:01:14;;;;;;;;;;;;;;;6.38;100.00;100004.66;5089090;28;20007;-76
2023/03/18 00:03:39;;;;;;;;;;;;;;;6.42;100.00;99999.09;5092804;28;19928;-76
2023/03/18 00:06:10;;;;;;;;;;;;;;;6.39;100.00;100001.09;5091054;28;19920;-75
2023/03/18 00:08:36;;;;;;;;;;;;;;;6.37;100.00;100000.34;5088911;28;20011;-75
2023/03/18 00:11:04;;;;;;;;;;;;;;;6.35;100.00;100003.09;5090797;28;20388;-75
2023/03/18 00:13:32;;;;;;;;;;;;;;;6.34;100.00;100006.66;5091530;28;20381;-75
2023/03/18 00:15:58;;;;;;;;;;;;;;;6.33;99.94;100004.13;5090603;28;19920;-75
2023/03/18 00:18:24;;;;;;;;;;;;;;;6.12;100.00;100006.44;5091090;28;19920;-75
2023/03/18 00:20:49;;;;;;;;;;;;;;;6.03;100.00;100004.44;5091663;28;19931;-74
2023/03/18 00:23:16;;;;;;;;;;;;;;;6.06;100.00;100002.47;5089802;28;19920;-75
2023/03/18 00:25:42;;;;;;;;;;;;;;;6.12;100.00;100011.69;5085872;28;20411;-73
2023/03/18 00:28:08;;;;;;;;;;;;;;;6.01;100.00;100007.16;5095415;28;19925;-74
2023/03/18 00:30:36;;;;;;;;;;;;;;;6.10;100.00;100009.16;5089676;28;19920;-74
2023/03/18 00:33:01;;;;;;;;;;;;;;;6.07;100.00;100014.59;5092252;28;19935;-75
2023/03/18 00:35:29;;;;;;;;;;;;;;;5.93;100.00;100012.06;5092980;28;19920;-75
2023/03/18 00:37:54;;;;;;;;;;;;;;;5.84;100.00;100017.88;5072352;28;19924;-75
2023/03/18 00:40:26;;;;;;;;;;;;;;;5.82;100.00;100014.53;5091221;28;19920;-73
2023/03/18 00:42:56;;;;;;;;;;;;;;;5.68;100.00;100011.97;5088485;28;19920;-75
2023/03/18 00:45:22;;;;;;;;;;;;;;;5.74;100.00;100009.81;5088904;28;19925;-74
2023/03/18 00:47:49;;;;;;;;;;;;;;;5.72;100.00;99997.72;5076699;28;19933;-74
2023/03/18 00:50:15;;;;;;;;;;;;;;;5.69;100.00;100003.19;5088668;28;19928;-74
2023/03/18 00:52:40;;;;;;;;;;;;;;;5.65;100.00;99997.31;5092113;28;19920;-74
2023/03/18 00:55:06;;;;;;;;;;;;;;;5.77;100.00;100003.53;5089380;28;19921;-73
2023/03/18 00:57:32;;;;;;;;;;;;;;;5.62;100.00;99994.06;5074097;28;19927;-74
2023/03/18 00:59:58;;;;;;;;;;;;;;;5.58;100.00;99989.97;5090386;28;19928;-74
2023/03/18 01:02:25;;;;;;;;;;;;;;;5.58;100.00;99989.97;5088732;28;20430;-74
2023/03/18 01:04:51;;;;;;;;;;;;;;;5.46;100.00;99996.00;5087555;28;19928;-74
2023/03/18 01:07:16;;;;;;;;;;;;;;;5.43;100.00;99991.78;5071058;28;20003;-73
2023/03/18 01:09:42;;;;;;;;;;;;;;;5.46;100.00;99991.59;5083647;28;19960;-74
2023/03/18 01:12:08;;;;;;;;;;;;;;;5.47;100.00;99987.22;5071560;28;19965;-74
2023/03/18 01:14:35;;;;;;;;;;;;;;;5.45;100.00;99982.06;5085286;28;20444;-74
2023/03/18 01:17:01;;;;;;;;;;;;;;;5.41;100.00;99974.53;5068307;28;20394;-74
2023/03/18 01:19:28;;;;;;;;;;;;;;;5.36;100.00;99970.41;5085246;28;19916;-75
2023/03/18 01:21:53;;;;;;;;;;;;;;;5.35;100.00;99973.16;5087849;28;19920;-76
2023/03/18 01:24:19;;;;;;;;;;;;;;;5.36;100.00;99975.66;5066761;28;19925;-74
2023/03/18 01:26:44;;;;;;;;;;;;;;;5.35;100.00;99974.00;5088693;28;19937;-74
2023/03/18 01:29:10;;;;;;;;;;;;;;;5.43;100.00;99975.25;5085036;28;19966;-74
2023/03/18 01:31:36;;;;;;;;;;;;;;;5.41;100.00;99978.00;5089055;28;19935;-75
2023/03/18 01:34:07;;;;;;;;;;;;;;;5.26;100.00;99974.56;5051780;28;19924;-74
2023/03/18 01:36:42;;;;;;;;;;;;;;;5.11;100.00;99967.72;5074282;28;19920;-74
2023/03/18 01:39:09;;;;;;;;;;;;;;;4.84;100.00;99962.44;5100825;28;19930;-75
2023/03/18 01:41:35;;;;;;;;;;;;;;;4.82;100.00;99953.88;5070566;28;20443;-76
2023/03/18 01:44:03;;;;;;;;;;;;;;;4.92;100.00;99956.75;5087323;28;19927;-75
2023/03/18 01:46:34;;;;;;;;;;;;;;;4.85;100.00;99963.28;5068361;28;19967;-74
2023/03/18 01:49:01;;;;;;;;;;;;;;;4.61;100.00;99955.22;5072465;28;19929;-75
2023/03/18 01:51:28;;;;;;;;;;;;;;;4.53;100.00;99953.09;5070513;28;20300;-76
2023/03/18 01:53:55;;;;;;;;;;;;;;;4.49;100.00;99946.34;5099770;28;19920;-75
2023/03/18 01:56:21;;;;;;;;;;;;;;;4.43;100.00;99936.28;5087081;28;19931;-75
2023/03/18 01:58:50;;;;;;;;;;;;;;;4.36;100.00;99934.16;5081065;28;19925;-75
2023/03/18 02:01:18;;;;;;;;;;;;;;;4.49;100.00;99933.28;5064270;28;20241;-75
2023/03/18 02:03:45;;;;;;;;;;;;;;;4.59;100.00;99930.13;5067372;28;19928;-75
2023/03/18 02:06:11;;;;;;;;;;;;;;;4.67;100.00;99925.22;5066265;28;20432;-75
2023/03/18 02:08:39;;;;;;;;;;;;;;;4.80;100.00;99928.75;5074187;28;20375;-77
2023/03/18 02:11:05;;;;;;;;;;;;;;;4.68;100.00;99919.91;5085067;28;19920;-76
2023/03/18 02:13:31;;;;;;;;;;;;;;;4.73;100.00;99922.22;5069441;28;20300;-76
2023/03/18 02:16:04;;;;;;;;;;;;;;;4.85;100.00;99931.91;5070237;28;20387;-76
2023/03/18 02:18:37;;;;;;;;;;;;;;;4.81;100.00;99931.28;5068624;28;20376;-76
2023/03/18 02:21:16;;;;;;;;;;;;;;;4.71;100.00;99929.34;5084353;28;19987;-77
2023/03/18 02:23:44;;;;;;;;;;;;;;;4.52;100.00;99925.28;5094687;28;20473;-77
2023/03/18 02:26:37;;;;;;;;;;;;;;;4.54;100.00;99928.63;5084565;28;19971;-76
2023/03/18 02:29:05;;;;;;;;;;;;;;;4.68;100.00;99924.31;5068452;28;19921;-76
2023/03/18 02:31:40;;;;;;;;;;;;;;;4.79;100.00;99916.63;5063522;28;20012;-75
2023/03/18 02:34:07;;;;;;;;;;;;;;;4.86;100.00;99912.69;5084130;28;19924;-75
2023/03/18 02:36:34;;;;;;;;;;;;;;;4.88;100.00;99916.88;5069505;28;20306;-75
2023/03/18 02:39:03;;;;;;;;;;;;;;;4.97;100.00;99915.44;5066441;28;20288;-74
2023/03/18 02:41:32;;;;;;;;;;;;;;;4.95;100.00;99909.47;5065137;28;19931;-74
2023/03/18 02:43:58;;;;;;;;;;;;;;;4.82;100.00;99909.44;5066182;28;19966;-76
2023/03/18 02:46:45;;;;;;;;;;;;;;;4.93;100.00;99909.59;5066870;28;19923;-76
2023/03/18 02:49:12;;;;;;;;;;;;;;;5.02;100.00;99918.59;5068456;28;20331;-75
2023/03/18 02:51:38;;;;;;;;;;;;;;;5.07;100.00;99908.66;5065162;28;20269;-77
2023/03/18 02:54:09;;;;;;;;;;;;;;;4.72;100.00;99910.09;5086155;28;19935;-75
2023/03/18 02:56:35;;;;;;;;;;;;;;;4.64;100.00;99917.59;5063527;28;20406;-75
2023/03/18 02:59:01;;;;;;;;;;;;;;;4.69;100.00;99910.31;5086475;28;19958;-76
2023/03/18 03:01:27;;;;;;;;;;;;;;;4.74;100.00;99906.47;5066378;28;19955;-76
2023/03/18 03:03:52;;;;;;;;;;;;;;;4.70;100.00;99912.00;5084910;28;19924;-75
2023/03/18 03:06:18;;;;;;;;;;;;;;;4.78;100.00;99901.84;5082974;28;19931;-75
2023/03/18 03:08:44;;;;;;;;;;;;;;;4.86;100.00;99899.59;5071487;28;20002;-76
2023/03/18 03:11:10;;;;;;;;;;;;;;;4.78;100.00;99910.53;5084159;28;19926;-75
2023/03/18 03:13:37;;;;;;;;;;;;;;;4.57;100.00;99905.84;5069751;28;19920;-75
2023/03/18 03:16:03;;;;;;;;;;;;;;;4.69;100.00;99895.47;5087269;28;19920;-75
2023/03/18 03:18:29;;;;;;;;;;;;;;;4.74;100.00;99892.53;5067406;28;19924;-74
2023/03/18 03:20:54;;;;;;;;;;;;;;;4.70;100.00;99888.47;5082031;28;19924;-75
2023/03/18 03:23:20;;;;;;;;;;;;;;;4.81;100.00;99891.22;5086176;28;19927;-75
2023/03/18 03:25:46;;;;;;;;;;;;;;;4.89;100.00;99883.72;5095061;28;20113;-74
2023/03/18 03:28:13;;;;;;;;;;;;;;;4.91;100.00;99887.06;5083241;28;19962;-75
2023/03/18 03:30:39;;;;;;;;;;;;;;;5.05;100.00;99889.66;5095239;28;20259;-75
2023/03/18 03:33:05;;;;;;;;;;;;;;;5.09;100.00;99891.09;5097324;28;19966;-75
2023/03/18 03:35:31;;;;;;;;;;;;;;;5.10;100.00;99895.41;5067136;28;20072;-75
2023/03/18 03:37:57;;;;;;;;;;;;;;;5.12;100.00;99904.00;5068995;28;20023;-74
2023/03/18 03:40:23;;;;;;;;;;;;;;;5.13;100.00;99889.97;5083491;28;20014;-75
2023/03/18 03:42:49;;;;;;;;;;;;;;;5.09;100.00;99898.97;5085944;28;20295;-74
2023/03/18 03:45:17;;;;;;;;;;;;;;;4.91;100.00;99889.69;5082508;28;19921;-75
2023/03/18 03:47:45;;;;;;;;;;;;;;;4.83;100.00;99897.19;5085497;28;19973;-75
2023/03/18 03:50:11;;;;;;;;;;;;;;;4.87;100.00;99893.44;5082352;28;19932;-75
2023/03/18 03:52:37;;;;;;;;;;;;;;;4.79;100.00;99893.94;5098256;28;20292;-75
2023/03/18 03:55:03;;;;;;;;;;;;;;;4.93;100.00;99898.28;5061428;28;19920;-76
2023/03/18 03:57:29;;;;;;;;;;;;;;;4.93;100.00;99887.81;5085943;28;19924;-75
2023/03/18 03:59:55;;;;;;;;;;;;;;;4.85;100.00;99890.06;5080367;28;19931;-76
2023/03/18 04:02:40;;;;;;;;;;;;;;;4.80;100.00;99897.38;5082680;28;19947;-75
2023/03/18 04:05:06;;;;;;;;;;;;;;;4.76;100.00;99896.75;5094844;28;19927;-75
2023/03/18 04:07:32;;;;;;;;;;;;;;;4.54;100.00;99897.25;5084933;28;20018;-75
2023/03/18 04:09:57;;;;;;;;;;;;;;;4.59;100.00;99896.16;5063942;28;19927;-75
2023/03/18 04:12:23;;;;;;;;;;;;;;;4.72;100.00;99883.94;5084120;28;19950;-75
2023/03/18 04:14:54;;;;;;;;;;;;;;;4.72;100.00;99883.94;5065802;28;20008;-75
2023/03/18 04:17:21;;;;;;;;;;;;;;;4.79;100.00;99885.25;5085618;28;19920;-74
2023/03/18 04:19:47;;;;;;;;;;;;;;;4.86;100.00;99891.75;5086125;28;19965;-75
2023/03/18 04:22:14;;;;;;;;;;;;;;;4.85;100.00;99884.84;5067936;28;19971;-75
2023/03/18 04:24:40;;;;;;;;;;;;;;;4.95;100.00;99885.94;5086710;28;19920;-75
2023/03/18 04:27:05;;;;;;;;;;;;;;;4.83;100.00;99882.31;5080471;28;19920;-75
2023/03/18 04:29:32;;;;;;;;;;;;;;;4.92;100.00;99891.38;5096945;28;19966;-74
2023/03/18 04:31:57;;;;;;;;;;;;;;;4.84;100.00;99901.47;5084965;28;20273;-75
2023/03/18 04:34:23;;;;;;;;;;;;;;;4.56;100.00;99905.00;5066121;28;19942;-74
2023/03/18 04:36:49;;;;;;;;;;;;;;;4.66;100.00;99900.88;5084478;28;20331;-75
2023/03/18 04:39:15;;;;;;;;;;;;;;;4.73;100.00;99901.31;5079788;28;20253;-75
2023/03/18 04:41:41;;;;;;;;;;;;;;;4.72;100.00;99894.41;5067056;28;19934;-75
2023/03/18 04:44:06;;;;;;;;;;;;;;;4.67;100.00;99881.63;5085432;28;19984;-76
2023/03/18 04:46:46;;;;;;;;;;;;;;;4.38;100.00;99886.09;5068273;28;20340;-75
2023/03/18 04:49:12;;;;;;;;;;;;;;;4.51;100.00;99886.16;5075657;28;19924;-75
2023/03/18 04:51:38;;;;;;;;;;;;;;;4.48;100.00;99886.34;5086381;28;19924;-74
2023/03/18 04:54:06;;;;;;;;;;;;;;;4.45;100.00;99887.38;5072358;28;19951;-75
2023/03/18 04:56:32;;;;;;;;;;;;;;;4.30;100.00;99884.91;5087558;28;20318;-75
2023/03/18 04:58:58;;;;;;;;;;;;;;;4.31;100.00;99889.16;5072230;28;20016;-75
2023/03/18 05:01:28;;;;;;;;;;;;;;;4.31;100.00;99887.41;5070237;28;20018;-76
2023/03/18 05:03:54;;;;;;;;;;;;;;;4.37;100.00;99886.19;5069969;28;19960;-75
2023/03/18 05:06:24;;;;;;;;;;;;;;;4.37;100.00;99884.41;5069286;28;19953;-76
2023/03/18 05:09:00;;;;;;;;;;;;;;;4.43;100.00;99883.19;5070127;28;19971;-76
2023/03/18 05:11:30;;;;;;;;;;;;;;;4.37;100.00;99881.78;5070934;28;19924;-77
2023/03/18 05:14:01;;;;;;;;;;;;;;;4.38;100.00;99880.88;5071834;28;19928;-76
2023/03/18 05:16:28;;;;;;;;;;;;;;;4.41;100.00;99870.22;5069106;28;19946;-75
2023/03/18 05:18:54;;;;;;;;;;;;;;;4.44;100.00;99875.25;5085915;28;19927;-76
2023/03/18 05:21:20;;;;;;;;;;;;;;;4.35;100.00;99881.06;5087017;28;19920;-75
2023/03/18 05:23:46;;;;;;;;;;;;;;;4.34;100.00;99874.16;5070779;28;19926;-74
2023/03/18 05:26:11;;;;;;;;;;;;;;;4.31;100.00;99879.56;5072669;28;20394;-75
2023/03/18 05:28:39;;;;;;;;;;;;;;;4.34;100.00;99882.00;5085371;28;19931;-76
2023/03/18 05:31:30;;;;;;;;;;;;;;;4.40;100.00;99879.00;5072040;28;19932;-75
2023/03/18 05:33:57;;;;;;;;;;;;;;;4.44;100.00;99872.63;5070170;28;19924;-75
2023/03/18 05:36:25;;;;;;;;;;;;;;;4.38;100.00;99872.19;5073292;28;20382;-74
2023/03/18 05:38:56;;;;;;;;;;;;;;;4.11;100.00;99887.81;5070874;28;19924;-77
2023/03/18 05:41:23;;;;;;;;;;;;;;;4.07;100.00;99881.06;5066213;28;20257;-76
2023/03/18 05:43:50;;;;;;;;;;;;;;;4.20;100.00;99875.94;5084900;28;20308;-73
2023/03/18 05:46:16;;;;;;;;;;;;;;;4.21;100.00;99886.28;5051051;28;19920;-74
2023/03/18 05:49:10;;;;;;;;;;;;;;;4.13;100.00;99886.75;5072529;28;19939;-74
2023/03/18 05:51:53;;;;;;;;;;;;;;;3.95;100.00;99884.44;5065822;28;20225;-73
2023/03/18 05:54:29;;;;;;;;;;;;;;;4.04;100.00;99892.56;5061894;28;20312;-72
2023/03/18 05:56:54;;;;;;;;;;;;;;;4.11;100.00;99887.81;5070257;28;20427;-73
2023/03/18 05:59:22;;;;;;;;;;;;;;;4.16;100.00;99895.34;5085475;28;20273;-73
2023/03/18 06:01:53;;;;;;;;;;;;;;;4.16;100.00;99890.97;5064579;28;19920;-73
2023/03/18 06:04:19;;;;;;;;;;;;;;;4.13;100.00;99885.91;5073836;28;20338;-73
2023/03/18 06:06:45;;;;;;;;;;;;;;;4.26;100.00;99886.84;5083562;28;19928;-73
2023/03/18 06:09:11;;;;;;;;;;;;;;;4.32;100.00;99889.09;5070308;28;20295;-74
2023/03/18 06:11:39;;;;;;;;;;;;;;;4.20;100.00;99892.44;5067554;28;20014;-72
2023/03/18 06:14:06;;;;;;;;;;;;;;;4.08;100.00;99898.41;5083867;28;20011;-73
2023/03/18 06:16:32;;;;;;;;;;;;;;;3.91;100.00;99912.50;5096616;28;20360;-73
2023/03/18 06:19:00;;;;;;;;;;;;;;;3.92;100.00;99910.72;5085217;28;20007;-75
2023/03/18 06:21:26;;;;;;;;;;;;;;;4.02;100.00;99899.63;5067768;28;20368;-74
2023/03/18 06:23:52;;;;;;;;;;;;;;;4.00;100.00;99898.06;5067824;28;20391;-74
2023/03/18 06:26:17;;;;;;;;;;;;;;;4.03;100.00;99900.47;5067873;28;19921;-74
2023/03/18 06:28:46;;;;;;;;;;;;;;;4.03;100.00;99892.66;5069393;28;20023;-76
2023/03/18 06:31:13;;;;;;;;;;;;;;;4.11;100.00;99893.88;5068619;28;19920;-78
2023/03/18 06:33:39;;;;;;;;;;;;;;;4.24;100.00;99888.69;5084192;28;19925;-75
2023/03/18 06:36:07;;;;;;;;;;;;;;;4.33;100.00;99892.53;5069099;28;19921;-76
2023/03/18 06:38:33;;;;;;;;;;;;;;;4.43;100.00;99894.47;5068570;28;20049;-74
2023/03/18 06:41:00;;;;;;;;;;;;;;;4.45;100.00;99897.84;5069143;28;19924;-76
2023/03/18 06:43:29;;;;;;;;;;;;;;;4.28;100.00;99890.22;5064591;28;19925;-76
2023/03/18 06:45:55;;;;;;;;;;;;;;;4.40;100.00;99889.44;5052573;28;19965;-74
2023/03/18 06:48:21;;;;;;;;;;;;;;;4.56;100.00;99888.47;5084067;28;20011;-76
2023/03/18 06:50:48;;;;;;;;;;;;;;;4.71;100.00;99888.34;5067069;28;20015;-75
2023/03/18 06:53:29;;;;;;;;;;;;;;;4.85;100.00;99884.84;5070190;28;19924;-75
2023/03/18 06:55:55;;;;;;;;;;;;;;;4.98;100.00;99890.97;5068750;28;19924;-74
2023/03/18 06:58:24;;;;;;;;;;;;;;;5.05;100.00;99888.81;5083398;28;19927;-75
2023/03/18 07:01:07;;;;;;;;;;;;;;;5.19;100.00;99884.34;5102362;28;19920;-75
2023/03/18 07:03:37;;;;;;;;;;;;;;;5.30;100.00;99887.06;5052441;28;20007;-75
2023/03/18 07:06:04;;;;;;;;;;;;;;;5.39;100.00;99901.34;5065798;28;19935;-74
2023/03/18 07:08:31;;;;;;;;;;;;;;;5.41;100.00;99898.63;5068514;28;19924;-75
2023/03/18 07:10:56;;;;;;;;;;;;;;;5.51;100.00;99899.69;5064241;28;20789;-75
2023/03/18 07:13:22;;;;;;;;;;;;;;;5.66;100.00;99898.66;5066935;28;19921;-74
2023/03/18 07:15:48;;;;;;;;;;;;;;;5.50;100.00;99909.31;5066886;28;19920;-73
2023/03/18 07:18:14;;;;;;;;;;;;;;;5.53;100.00;99903.06;5084185;28;19927;-74
2023/03/18 07:20:40;;;;;;;;;;;;;;;5.69;100.00;99904.53;5082274;28;19943;-75
2023/03/18 07:23:07;;;;;;;;;;;;;;;5.82;100.00;99909.78;5050692;28;19920;-74
2023/03/18 07:25:32;;;;;;;;;;;;;;;5.95;100.00;99904.59;5083684;28;19921;-75
2023/03/18 07:27:59;;;;;;;;;;;;;;;6.07;100.00;99915.03;5085620;28;20296;-75
2023/03/18 07:30:25;;;;;;;;;;;;;;;6.23;100.00;99911.38;5087738;28;19980;-76
2023/03/18 07:32:51;;;;;;;;;;;;;;;6.41;100.00;99910.09;5070048;28;19920;-78
2023/03/18 07:35:17;;;;;;;;;;;;;;;6.50;100.00;99912.06;5065485;28;19920;-77
2023/03/18 07:37:43;;;;;;;;;;;;;;;6.68;100.00;99921.22;5087257;28;20256;-78
2023/03/18 07:40:10;;;;;;;;;;;;;;;6.83;100.00;99919.31;5084393;28;19924;-79
2023/03/18 07:42:36;;;;;;;;;;;;;;;6.85;100.00;99933.97;5091285;28;20240;-74
2023/03/18 07:45:02;;;;;;;;;;;;;;;6.73;100.00;99929.59;5085477;28;20348;-75
2023/03/18 07:47:28;;;;;;;;;;;;;;;6.79;100.00;99929.16;5084161;28;20371;-74
2023/03/18 07:49:53;;;;;;;;;;;;;;;6.81;100.00;99935.16;5082839;28;19927;-76
2023/03/18 07:52:19;;;;;;;;;;;;;;;6.97;100.00;99933.09;5085611;28;20632;-74
2023/03/18 07:54:44;;;;;;;;;;;;;;;6.94;100.00;99928.09;5085806;28;19963;-74
2023/03/18 07:57:10;;;;;;;;;;;;;;;7.08;100.00;99931.47;5082837;28;19920;-75
2023/03/18 07:59:38;;;;;;;;;;;;;;;7.25;100.00;99931.09;5083269;28;19967;-72
2023/03/18 08:02:06;;;;;;;;;;;;;;;7.39;100.00;99933.53;5086734;28;20256;-73
2023/03/18 08:04:32;;;;;;;;;;;;;;;7.52;100.00;99934.31;5087432;28;20010;-72
2023/03/18 08:06:57;;;;;;;;;;;;;;;7.66;100.00;99936.72;5086383;28;19985;-73
2023/03/18 08:09:23;;;;;;;;;;;;;;;7.75;100.00;99933.44;5085657;28;20427;-74
2023/03/18 08:11:49;;;;;;;;;;;;;;;7.81;99.99;99930.34;5083760;28;20022;-75
2023/03/18 08:14:14;;;;;;;;;;;;;;;7.89;98.62;99931.56;5087329;28;19920;-74
2023/03/18 08:16:40;;;;;;;;;;;;;;;8.02;98.86;99937.53;5084305;28;19935;-75
2023/03/18 08:19:05;;;;;;;;;;;;;;;8.19;98.08;99929.19;5090511;28;20321;-75
2023/03/18 08:21:31;;;;;;;;;;;;;;;8.26;97.14;99924.28;5087193;28;19927;-75
2023/03/18 08:23:56;;;;;;;;;;;;;;;8.35;96.41;99927.09;5090035;28;19920;-75
2023/03/18 08:26:23;;;;;;;;;;;;;;;8.50;95.21;99923.25;5088233;28;19920;-77
2023/03/18 08:28:48;;;;;;;;;;;;;;;8.56;94.21;99927.19;5089138;28;20292;-76
2023/03/18 08:31:14;;;;;;;;;;;;;;;8.65;93.67;99930.91;5090131;28;19916;-73
2023/03/18 08:33:40;;;;;;;;;;;;;;;8.68;93.36;99930.63;5085499;28;19970;-73
2023/03/18 08:36:07;;;;;;;;;;;;;;;8.55;92.78;99931.59;5090521;28;19920;-73
2023/03/18 08:38:32;;;;;;;;;;;;;;;8.62;92.62;99922.28;5071754;28;20368;-74
2023/03/18 08:40:58;;;;;;;;;;;;;;;8.55;93.05;99936.88;5093316;28;19927;-74
2023/03/18 08:43:24;;;;;;;;;;;;;;;8.63;92.94;99929.22;5090194;28;20017;-73
2023/03/18 08:45:53;;;;;;;;;;;;;;;8.80;92.62;99932.28;5084338;28;19924;-74
2023/03/18 08:48:19;;;;;;;;;;;;;;;8.90;91.11;99926.16;5088474;28;20321;-75
2023/03/18 08:50:45;;;;;;;;;;;;;;;9.01;90.42;99927.97;5086267;28;19924;-73
2023/03/18 08:53:11;;;;;;;;;;;;;;;9.16;89.22;99924.06;5087543;28;19965;-74
2023/03/18 08:55:38;;;;;;;;;;;;;;;9.26;87.64;99921.50;5089239;28;20279;-72
2023/03/18 08:58:04;;;;;;;;;;;;;;;9.33;87.15;99922.69;5088684;28;20296;-73
2023/03/18 09:00:30;;;;;;;;;;;;;;;9.48;87.22;99925.88;5086222;28;19989;-73
2023/03/18 09:02:55;;;;;;;;;;;;;;;9.56;85.52;99929.53;5085321;28;19920;-73
2023/03/18 09:05:21;;;;;;;;;;;;;;;9.69;85.44;99932.81;5088535;28;19921;-73
2023/03/18 09:07:47;;;;;;;;;;;;;;;9.79;85.65;99930.25;5088609;28;19966;-74
2023/03/18 09:10:13;;;;;;;;;;;;;;;9.85;85.36;99929.72;5086515;28;19931;-74
2023/03/18 09:12:39;;;;;;;;;;;;;;;9.93;84.25;99926.47;5085165;28;19928;-74
2023/03/18 09:15:06;;;;;;;;;;;;;;;10.03;82.42;99928.19;5088470;28;19928;-74
2023/03/18 09:17:31;;;;;;;;;;;;;;;10.03;82.51;99928.19;5085182;28;20299;-74
2023/03/18 09:19:57;;;;;;;;;;;;;;;9.98;82.37;99935.66;5087856;28;19924;-74
2023/03/18 09:22:22;;;;;;;;;;;;;;;10.01;82.41;99922.22;5088257;28;19920;-74
2023/03/18 09:24:48;;;;;;;;;;;;;;;10.12;82.57;99923.94;5084601;28;19927;-74
2023/03/18 09:27:13;;;;;;;;;;;;;;;10.25;81.60;99928.03;5085380;28;19921;-74
2023/03/18 09:29:39;;;;;;;;;;;;;;;10.36;80.61;99923.69;5088050;28;19924;-73
2023/03/18 09:32:05;;;;;;;;;;;;;;;10.49;80.02;99918.97;5085784;28;19946;-73
2023/03/18 09:34:30;;;;;;;;;;;;;;;10.56;79.85;99925.41;5073396;28;20029;-74
2023/03/18 09:36:57;;;;;;;;;;;;;;;10.68;79.92;99930.44;5089030;28;20010;-74
2023/03/18 09:39:22;;;;;;;;;;;;;;;10.80;79.80;99928.53;5083693;28;20318;-75
2023/03/18 09:41:47;;;;;;;;;;;;;;;10.87;78.61;99929.66;5091203;28;20018;-73
2023/03/18 09:44:28;;;;;;;;;;;;;;;10.96;77.69;99926.19;5085740;28;19920;-72
2023/03/18 09:47:13;;;;;;;;;;;;;;;11.07;76.28;99931.38;5086945;28;20318;-74
2023/03/18 09:49:44;;;;;;;;;;;;;;;11.15;73.94;99921.94;5072414;28;19920;-73
2023/03/18 09:52:20;;;;;;;;;;;;;;;11.21;71.07;99924.00;5086866;28;19931;-73
2023/03/18 09:55:10;;;;;;;;;;;;;;;11.30;69.58;99931.97;5089524;28;19920;-73
2023/03/18 09:57:38;;;;;;;;;;;;;;;11.33;69.64;99925.56;5087036;28;19980;-74
2023/03/18 10:00:16;;;;;;;;;;;;;;;11.41;69.77;99917.78;5084716;28;19942;-74
2023/03/18 10:02:45;;;;;;;;;;;;;;;11.46;68.97;99926.13;5085300;28;20298;-74
2023/03/18 10:05:16;;;;;;;;;;;;;;;11.50;68.12;99922.22;5084842;28;20380;-74
2023/03/18 10:07:43;;;;;;;;;;;;;;;11.57;68.76;99923.34;5085017;28;19943;-73
2023/03/18 10:10:14;;;;;;;;;;;;;;;11.64;65.22;99924.44;5085005;28;20311;-73
2023/03/18 10:12:44;;;;;;;;;;;;;;;11.73;63.50;99920.97;5082184;28;20276;-73
2023/03/18 10:15:12;;;;;;;;;;;;;;;11.81;62.78;99921.13;5080486;28;19939;-73
2023/03/18 10:17:38;;;;;;;;;;;;;;;11.92;61.23;99921.94;5083549;28;20011;-73
2023/03/18 10:20:12;;;;;;;;;;;;;;;12.01;60.51;99915.78;5089103;28;20018;-73
2023/03/18 10:22:40;;;;;;;;;;;;;;;12.05;56.78;99911.88;5085698;28;19921;-74
2023/03/18 10:25:09;;;;;;;;;;;;;;;12.12;56.45;99907.69;5088888;28;20276;-73
2023/03/18 10:27:34;;;;;;;;;;;;;;;12.20;56.36;99894.56;5084344;28;19920;-74
2023/03/18 10:30:21;;;;;;;;;;;;;;;12.28;56.93;99897.31;5091130;28;19947;-74
2023/03/18 10:32:52;;;;;;;;;;;;;;;12.35;55.47;99893.13;5081479;28;20309;-75
2023/03/18 10:35:25;;;;;;;;;;;;;;;12.38;54.87;99892.81;5088898;28;20337;-74
2023/03/18 10:38:03;;;;;;;;;;;;;;;12.38;54.05;99889.31;5085791;28;19953;-74
2023/03/18 10:40:40;;;;;;;;;;;;;;;12.27;52.65;99885.06;5083095;28;20697;-75
2023/03/18 10:43:26;;;;;;;;;;;;;;;12.37;52.70;99893.78;5088095;28;20384;-74
2023/03/18 10:46:03;;;;;;;;;;;;;;;12.46;53.32;99895.56;5076975;28;19986;-75
2023/03/18 10:48:34;;;;;;;;;;;;;;;12.49;53.32;99883.84;5085938;28;19927;-76
2023/03/18 10:51:06;;;;;;;;;;;;;;;12.51;53.56;99882.72;5086859;28;20288;-75
2023/03/18 10:53:35;;;;;;;;;;;;;;;12.58;53.90;99883.81;5087996;28;19934;-74
2023/03/18 10:56:05;;;;;;;;;;;;;;;12.64;51.86;99882.38;5088076;28;19939;-74
2023/03/18 10:58:31;;;;;;;;;;;;;;;12.68;52.22;99887.22;5084017;28;19960;-75
2023/03/18 11:00:56;;;;;;;;;;;;;;;12.73;52.77;99881.47;5085422;28;19920;-75
2023/03/18 11:03:26;;;;;;;;;;;;;;;12.84;53.42;99880.47;5088443;28;19920;-75
2023/03/18 11:05:54;;;;;;;;;;;;;;;12.91;52.36;99873.56;5085655;28;20244;-74
2023/03/18 11:08:33;;;;;;;;;;;;;;;12.97;51.52;99872.97;5081221;28;19921;-76
2023/03/18 11:11:14;;;;;;;;;;;;;;;13.03;51.99;99856.47;5084762;28;19931;-75
2023/03/18 11:13:44;;;;;;;;;;;;;;;13.07;51.13;99863.16;5066435;28;19931;-74
2023/03/18 11:16:19;;;;;;;;;;;;;;;13.15;52.10;99865.06;5083587;28;19920;-75
2023/03/18 11:18:45;;;;;;;;;;;;;;;13.23;50.92;99860.69;5085465;28;19978;-73
2023/03/18 11:21:11;;;;;;;;;;;;;;;13.30;49.56;99859.09;5083673;28;19920;-75
2023/03/18 11:24:41;;;;;;;;;;;;;;;13.34;48.31;99855.13;5070216;28;20348;-76
2023/03/18 11:26:43;;;;;;;;;;;;;;;13.40;48.40;99849.22;5068693;28;20332;-75
2023/03/18 11:29:15;;;;;;;;;;;;;;;13.50;48.14;99855.25;5083803;28;19958;-74
2023/03/18 11:31:50;;;;;;;;;;;;;;;13.64;47.60;99848.56;5085512;28;20276;-75
2023/03/18 11:34:18;;;;;;;;;;;;;;;13.74;46.26;99848.47;5083659;28;19920;-75
2023/03/18 11:36:51;;;;;;;;;;;;;;;13.79;46.47;99843.53;5068453;28;20781;-75
2023/03/18 11:39:18;;;;;;;;;;;;;;;13.90;45.91;99843.28;5084580;28;19916;-74
2023/03/18 11:41:43;;;;;;;;;;;;;;;14.06;46.68;99843.38;5086553;28;20267;-76
2023/03/18 11:44:18;;;;;;;;;;;;;;;14.20;46.62;99848.06;5082995;28;20015;-75
2023/03/18 11:46:52;;;;;;;;;;;;;;;14.37;46.20;99842.84;5080453;28;19920;-75
2023/03/18 11:49:25;;;;;;;;;;;;;;;14.57;46.44;99844.25;5082510;28;19955;-75
2023/03/18 11:52:09;;;;;;;;;;;;;;;14.67;44.16;99839.63;5083252;28;19947;-73
2023/03/18 11:54:42;;;;;;;;;;;;;;;14.80;43.98;99840.00;5083289;28;20005;-73
2023/03/18 11:57:44;;;;;;;;;;;;;;;14.97;43.78;99846.19;5082026;28;19963;-75
2023/03/18 12:00:25;;;;;;;;;;;;;;;15.19;44.25;99847.41;5018529;28;20451;-74
2023/03/18 12:02:50;;;;;;;;;;;;;;;15.27;43.49;99839.41;5078661;28;19942;-73
2023/03/18 12:05:27;;;;;;;;;;;;;;;15.14;42.63;99829.25;5082948;28;20372;-75
2023/03/18 12:08:09;;;;;;;;;;;;;;;15.06;43.80;99827.44;5095142;28;19916;-74
2023/03/18 12:10:37;;;;;;;;;;;;;;;14.94;43.24;99825.28;5085065;28;19930;-74
2023/03/18 12:13:21;;;;;;;;;;;;;;;14.73;42.93;99823.06;5082061;28;19921;-74
2023/03/18 12:15:53;;;;;;;;;;;;;;;14.70;42.93;99815.44;5081991;28;19920;-74
2023/03/18 12:18:33;;;;;;;;;;;;;;;14.81;43.02;99820.44;5083025;28;19920;-75
2023/03/18 12:21:21;;;;;;;;;;;;;;;14.98;42.94;99808.81;5081223;28;19943;-75
2023/03/18 12:24:01;;;;;;;;;;;;;;;15.13;41.96;99809.84;5082467;28;19927;-74
2023/03/18 12:26:45;;;;;;;;;;;;;;;15.27;42.29;99808.34;5086576;28;19935;-74
2023/03/18 12:29:29;;;;;;;;;;;;;;;15.27;41.72;99816.31;5081880;28;19928;-74
2023/03/18 12:32:04;;;;;;;;;;;;;;;15.34;41.74;99803.19;5081601;28;20027;-74
2023/03/18 12:34:45;;;;;;;;;;;;;;;15.43;41.56;99804.84;5083966;28;19924;-75
2023/03/18 12:37:12;;;;;;;;;;;;;;;15.61;40.85;99805.50;5080873;28;20078;-74
2023/03/18 12:39:44;;;;;;;;;;;;;;;15.72;40.67;99794.53;5083132;28;19923;-74
2023/03/18 12:42:17;;;;;;;;;;;;;;;15.75;40.41;99799.50;5081855;28;19924;-74
2023/03/18 12:44:42;;;;;;;;;;;;;;;15.71;40.32;99787.53;5081434;28;20019;-74
2023/03/18 12:47:10;;;;;;;;;;;;;;;15.82;40.36;99795.16;5082095;28;19943;-75
2023/03/18 12:49:57;;;;;;;;;;;;;;;15.83;40.06;99780.88;5084266;28;19916;-75
2023/03/18 12:52:22;;;;;;;;;;;;;;;15.86;39.83;99785.84;5086174;28;19928;-75
2023/03/18 12:55:06;;;;;;;;;;;;;;;16.06;40.14;99774.78;5084135;28;20032;-74
2023/03/18 12:57:36;;;;;;;;;;;;;;;16.23;40.53;99777.22;5084415;28;19984;-74